Time;durP1;ratioP1;P1;durP2;ratioP2;P2;SDS_P1;SDS_P2;PMS_P1;PMS_P2;Temp;Humidity;BMP_temperature;BMP_pressure;BME280_temperature;BME280_humidity;BME280_pressure;Samples;Min_cycle;Max_cycle;Signal;HPM_P1;HPM_P2
2023/07/19 00:00:39;;;;;;;4.72;2.33;;;16.50;99.90;;;;;;5068614;28;20032;-77
2023/07/19 00:03:04;;;;;;;8.27;3.10;;;16.40;99.90;;;;;;5056245;28;20048;-78
2023/07/19 00:05:30;;;;;;;5.95;2.78;;;16.40;99.90;;;;;;5072679;28;20040;-77
2023/07/19 00:07:56;;;;;;;5.78;2.90;;;16.40;99.90;;;;;;5073924;28;20428;-78
2023/07/19 00:10:21;;;;;;;5.22;2.80;;;16.40;99.90;;;;;;5065730;28;20116;-78
2023/07/19 00:12:47;;;;;;;5.80;2.80;;;16.40;99.90;;;;;;5052525;28;20069;-78
2023/07/19 00:15:13;;;;;;;6.65;3.00;;;16.40;99.90;;;;;;5058727;28;20139;-77
2023/07/19 00:17:38;;;;;;;5.43;2.58;;;16.40;99.90;;;;;;5071232;28;20040;-78
2023/07/19 00:20:05;;;;;;;5.95;3.10;;;16.40;99.90;;;;;;5070853;28;20036;-78
2023/07/19 00:22:32;;;;;;;6.60;2.95;;;16.40;99.90;;;;;;5052545;28;20048;-77
2023/07/19 00:24:57;;;;;;;5.75;3.00;;;16.40;99.90;;;;;;5054507;28;20045;-77
2023/07/19 00:27:24;;;;;;;6.70;3.20;;;16.40;99.90;;;;;;5072163;28;20081;-76
2023/07/19 00:29:50;;;;;;;4.38;2.42;;;16.40;99.90;;;;;;5053561;28;20401;-78
2023/07/19 00:32:16;;;;;;;4.75;2.45;;;16.40;99.90;;;;;;5056665;28;20093;-78
2023/07/19 00:34:41;;;;;;;5.55;2.30;;;16.30;99.90;;;;;;5054755;28;20127;-78
2023/07/19 00:37:07;;;;;;;4.40;2.47;;;16.30;99.90;;;;;;5071007;28;20036;-78
2023/07/19 00:39:33;;;;;;;4.80;1.92;;;16.40;99.90;;;;;;5055430;28;20033;-77
2023/07/19 00:41:59;;;;;;;6.13;2.50;;;16.40;99.90;;;;;;5053309;28;20470;-77
2023/07/19 00:44:24;;;;;;;5.38;2.30;;;16.40;99.90;;;;;;5070888;28;20039;-78
2023/07/19 00:46:50;;;;;;;3.90;2.20;;;16.40;99.90;;;;;;5071108;28;20036;-78
2023/07/19 00:49:16;;;;;;;4.68;2.15;;;16.40;99.90;;;;;;5055547;28;20045;-79
2023/07/19 00:51:42;;;;;;;5.10;2.15;;;16.40;99.90;;;;;;5070742;28;20485;-78
2023/07/19 00:54:08;;;;;;;5.25;2.38;;;16.40;99.90;;;;;;5067610;28;20035;-78
2023/07/19 00:56:33;;;;;;;6.68;2.40;;;16.40;99.90;;;;;;5051953;28;20045;-77
2023/07/19 00:59:02;;;;;;;5.47;2.75;;;16.40;99.90;;;;;;5051855;28;20098;-77
2023/07/19 01:01:28;;;;;;;5.85;2.50;;;16.40;99.90;;;;;;5057055;28;20447;-77
2023/07/19 01:03:54;;;;;;;4.18;2.42;;;16.30;99.90;;;;;;5053558;28;20046;-77
2023/07/19 01:06:19;;;;;;;4.00;2.40;;;16.30;99.90;;;;;;5071511;28;20111;-77
2023/07/19 01:08:49;;;;;;;6.05;2.78;;;16.20;99.90;;;;;;5055308;28;20044;-78
2023/07/19 01:11:14;;;;;;;5.03;2.40;;;16.30;99.90;;;;;;5047184;28;20035;-77
2023/07/19 01:13:56;;;;;;;6.50;3.20;;;16.20;99.90;;;;;;5071786;28;20127;-77
2023/07/19 01:16:22;;;;;;;5.38;2.47;;;16.20;99.90;;;;;;5075080;28;20042;-78
2023/07/19 01:18:48;;;;;;;6.15;2.92;;;16.20;99.90;;;;;;5054889;28;20037;-78
2023/07/19 01:21:13;;;;;;;6.50;2.58;;;16.10;99.90;;;;;;5069067;28;20040;-78
2023/07/19 01:23:40;;;;;;;6.35;3.03;;;16.00;99.90;;;;;;5057679;28;20032;-78
2023/07/19 01:26:05;;;;;;;5.93;3.03;;;16.10;99.90;;;;;;5069584;28;20037;-79
2023/07/19 01:28:31;;;;;;;7.45;3.25;;;16.00;99.90;;;;;;5053230;28;20113;-77
2023/07/19 01:30:56;;;;;;;5.43;2.97;;;16.00;99.90;;;;;;5062496;28;20044;-78
2023/07/19 01:33:22;;;;;;;5.32;3.10;;;16.00;99.90;;;;;;5072189;28;20476;-79
2023/07/19 01:35:48;;;;;;;7.75;3.55;;;15.90;99.90;;;;;;5053123;28;20115;-78
2023/07/19 01:38:13;;;;;;;6.72;3.17;;;16.00;99.90;;;;;;5068053;28;20044;-77
2023/07/19 01:40:39;;;;;;;5.80;2.88;;;16.10;99.90;;;;;;5058720;28;20400;-78
2023/07/19 01:43:04;;;;;;;6.30;3.08;;;16.10;99.90;;;;;;5042146;28;20182;-78
2023/07/19 01:45:30;;;;;;;6.57;3.38;;;16.20;99.90;;;;;;5054646;28;20033;-78
2023/07/19 01:47:55;;;;;;;4.55;2.60;;;16.10;99.90;;;;;;5054642;28;20119;-79
2023/07/19 01:50:21;;;;;;;5.95;2.90;;;16.10;99.90;;;;;;5073858;28;20037;-79
2023/07/19 01:52:48;;;;;;;9.05;3.47;;;16.10;99.90;;;;;;5074346;28;20129;-78
2023/07/19 01:55:13;;;;;;;5.55;2.90;;;16.10;99.90;;;;;;5057374;28;20485;-78
2023/07/19 01:57:39;;;;;;;7.72;3.08;;;16.20;99.90;;;;;;5058981;28;20041;-79
2023/07/19 02:00:05;;;;;;;6.15;3.20;;;16.10;99.90;;;;;;5071053;28;20071;-78
2023/07/19 02:02:30;;;;;;;6.43;3.20;;;16.20;99.90;;;;;;5059479;28;20048;-78
2023/07/19 02:04:56;;;;;;;7.97;3.03;;;16.20;99.90;;;;;;5042547;28;20504;-79
2023/07/19 02:07:22;;;;;;;6.72;3.08;;;16.20;99.90;;;;;;5076931;28;20415;-79
2023/07/19 02:09:47;;;;;;;4.97;2.92;;;16.20;99.90;;;;;;5059203;28;20052;-79
2023/07/19 02:12:13;;;;;;;5.88;3.08;;;16.20;99.90;;;;;;5073174;28;20064;-79
2023/07/19 02:14:39;;;;;;;7.20;2.85;;;16.20;99.90;;;;;;5057490;28;20044;-78
2023/07/19 02:17:05;;;;;;;7.55;3.10;;;16.20;99.90;;;;;;5060098;28;20041;-79
2023/07/19 02:19:30;;;;;;;8.98;2.78;;;16.10;99.90;;;;;;5060704;28;20454;-79
2023/07/19 02:21:56;;;;;;;6.43;2.67;;;16.20;99.90;;;;;;5085267;28;20083;-79
2023/07/19 02:24:22;;;;;;;6.40;2.60;;;16.20;99.90;;;;;;5057825;28;20044;-79
2023/07/19 02:26:47;;;;;;;5.35;2.58;;;16.20;99.90;;;;;;5074465;28;20040;-79
2023/07/19 02:29:13;;;;;;;4.70;2.42;;;16.10;99.90;;;;;;5060640;28;20040;-79
2023/07/19 02:31:38;;;;;;;6.13;2.53;;;16.10;99.90;;;;;;5073553;28;20082;-79
2023/07/19 02:34:07;;;;;;;4.75;2.53;;;16.10;99.90;;;;;;5075105;28;20473;-79
2023/07/19 02:36:36;;;;;;;6.90;3.17;;;16.10;99.90;;;;;;5075924;28;20535;-79
2023/07/19 02:39:03;;;;;;;7.03;3.10;;;16.10;99.90;;;;;;5075353;28;20037;-79
2023/07/19 02:41:29;;;;;;;5.93;2.97;;;16.10;99.90;;;;;;5062838;28;20066;-79
2023/07/19 02:43:55;;;;;;;5.85;2.63;;;16.00;99.90;;;;;;5072440;28;20106;-80
2023/07/19 02:46:20;;;;;;;7.32;3.10;;;16.00;99.90;;;;;;5088843;28;20127;-79
2023/07/19 02:48:46;;;;;;;6.07;3.20;;;16.00;99.90;;;;;;5061441;28;20066;-79
2023/07/19 02:51:12;;;;;;;7.45;3.30;;;16.00;99.90;;;;;;5073390;28;20036;-79
2023/07/19 02:53:38;;;;;;;7.50;3.20;;;16.00;99.90;;;;;;5055789;28;20040;-79
2023/07/19 02:56:03;;;;;;;10.85;3.83;;;16.10;99.90;;;;;;5080784;28;20045;-78
2023/07/19 02:58:29;;;;;;;6.93;3.63;;;16.10;99.90;;;;;;5056256;28;20123;-78
2023/07/19 03:00:55;;;;;;;7.20;3.35;;;16.10;99.90;;;;;;5071995;28;20145;-79
2023/07/19 03:03:21;;;;;;;9.70;3.40;;;16.10;99.90;;;;;;5057443;28;20041;-78
2023/07/19 03:05:46;;;;;;;6.97;4.30;;;16.10;99.90;;;;;;5071859;28;20044;-79
2023/07/19 03:08:12;;;;;;;7.63;3.85;;;16.10;99.90;;;;;;5053583;28;20033;-78
2023/07/19 03:10:39;;;;;;;6.40;3.65;;;16.10;99.90;;;;;;5056296;28;20094;-79
2023/07/19 03:13:04;;;;;;;6.68;3.83;;;16.00;99.90;;;;;;5073890;28;20082;-78
2023/07/19 03:15:32;;;;;;;6.93;3.80;;;16.10;99.90;;;;;;5047564;28;20037;-79
2023/07/19 03:18:04;;;;;;;8.07;3.72;;;16.10;99.90;;;;;;5070204;28;20562;-78
2023/07/19 03:20:31;;;;;;;10.80;4.43;;;16.10;99.90;;;;;;5061539;28;20743;-79
2023/07/19 03:22:57;;;;;;;10.07;4.13;;;16.10;99.90;;;;;;5055748;28;20488;-79
2023/07/19 03:25:23;;;;;;;7.68;3.80;;;16.10;99.90;;;;;;5072927;28;20378;-78
2023/07/19 03:27:50;;;;;;;8.70;3.90;;;16.20;99.90;;;;;;5074749;28;20394;-79
2023/07/19 03:30:15;;;;;;;8.35;3.67;;;16.10;99.90;;;;;;5050771;28;20048;-79
2023/07/19 03:32:41;;;;;;;7.43;3.55;;;16.10;99.90;;;;;;5046238;28;20405;-79
2023/07/19 03:35:07;;;;;;;7.00;3.92;;;16.20;99.90;;;;;;5036608;28;20076;-79
2023/07/19 03:37:36;;;;;;;7.30;3.72;;;16.10;99.90;;;;;;5072142;28;20420;-78
2023/07/19 03:40:04;;;;;;;9.05;3.88;;;16.00;99.90;;;;;;5054247;28;20048;-78
2023/07/19 03:42:29;;;;;;;6.90;3.70;;;16.10;99.90;;;;;;5069887;28;20442;-78
2023/07/19 03:44:55;;;;;;;7.40;3.80;;;16.10;99.90;;;;;;5071951;28;20052;-80
2023/07/19 03:47:21;;;;;;;8.05;3.97;;;16.10;99.90;;;;;;5071711;28;20089;-78
2023/07/19 03:49:46;;;;;;;8.57;4.30;;;16.10;99.90;;;;;;5070359;28;20032;-78
2023/07/19 03:52:12;;;;;;;8.30;4.38;;;16.10;99.90;;;;;;5051986;28;20033;-79
2023/07/19 03:54:37;;;;;;;10.75;4.65;;;16.10;99.90;;;;;;5070024;28;20094;-78
2023/07/19 03:57:03;;;;;;;8.57;4.20;;;16.10;99.90;;;;;;5071414;28;20090;-78
2023/07/19 03:59:29;;;;;;;8.05;4.63;;;16.10;99.90;;;;;;5058576;28;20039;-78
2023/07/19 04:01:55;;;;;;;8.40;4.22;;;16.10;99.90;;;;;;5071499;28;20520;-78
2023/07/19 04:04:21;;;;;;;8.35;4.90;;;16.00;99.90;;;;;;5063035;28;20033;-78
2023/07/19 04:06:46;;;;;;;9.00;4.65;;;16.10;99.90;;;;;;5059196;28;20033;-79
2023/07/19 04:09:12;;;;;;;8.68;5.03;;;16.10;99.90;;;;;;5068922;28;20437;-79
2023/07/19 04:11:37;;;;;;;8.43;4.60;;;16.10;99.90;;;;;;5070547;28;20066;-79
2023/07/19 04:14:03;;;;;;;10.73;4.93;;;16.10;99.90;;;;;;5065059;28;20033;-78
2023/07/19 04:16:28;;;;;;;9.85;4.85;;;16.10;99.90;;;;;;5054618;28;20113;-79
2023/07/19 04:18:54;;;;;;;9.20;4.97;;;16.10;99.90;;;;;;5056057;28;20043;-79
2023/07/19 04:21:20;;;;;;;8.90;4.80;;;16.10;99.90;;;;;;5061216;28;20036;-79
2023/07/19 04:23:45;;;;;;;9.73;4.90;;;16.10;99.90;;;;;;5064803;28;20573;-78
2023/07/19 04:26:11;;;;;;;9.52;5.15;;;16.20;99.90;;;;;;5072001;28;20123;-79
2023/07/19 04:28:37;;;;;;;11.60;5.28;;;16.20;99.90;;;;;;5055539;28;20045;-79
2023/07/19 04:31:02;;;;;;;11.43;5.88;;;16.20;99.90;;;;;;5046719;28;20404;-79
2023/07/19 04:33:28;;;;;;;11.40;5.68;;;16.20;99.90;;;;;;5068307;28;20037;-80
2023/07/19 04:35:53;;;;;;;11.90;5.72;;;16.20;99.90;;;;;;5073657;28;20044;-78
2023/07/19 04:38:19;;;;;;;11.98;5.57;;;16.20;99.90;;;;;;5071025;28;20443;-79
2023/07/19 04:40:44;;;;;;;8.70;5.43;;;16.20;99.90;;;;;;5071279;28;20044;-79
2023/07/19 04:43:10;;;;;;;10.82;6.20;;;16.20;99.90;;;;;;5070417;28;20515;-79
2023/07/19 04:45:35;;;;;;;10.63;5.90;;;16.20;99.90;;;;;;5063797;28;20068;-79
2023/07/19 04:48:03;;;;;;;11.65;6.28;;;16.20;99.90;;;;;;5058701;28;20032;-79
2023/07/19 04:50:29;;;;;;;9.48;5.97;;;16.20;99.90;;;;;;5062434;28;20056;-79
2023/07/19 04:52:54;;;;;;;10.38;6.65;;;16.30;99.90;;;;;;5035872;28;20485;-79
2023/07/19 04:55:21;;;;;;;12.57;6.63;;;16.20;99.90;;;;;;5064078;28;20119;-80
2023/07/19 04:57:46;;;;;;;11.10;6.45;;;16.30;99.90;;;;;;5055148;28;20028;-79
2023/07/19 05:00:14;;;;;;;13.30;6.47;;;16.40;99.90;;;;;;5058696;28;20144;-78
2023/07/19 05:02:40;;;;;;;10.35;5.88;;;16.40;99.90;;;;;;5092551;28;20040;-78
2023/07/19 05:05:07;;;;;;;10.07;6.40;;;16.40;99.90;;;;;;5086176;28;20043;-78
2023/07/19 05:07:37;;;;;;;10.45;6.78;;;16.50;99.90;;;;;;5071487;28;20036;-79
2023/07/19 05:10:04;;;;;;;9.90;5.65;;;16.50;99.90;;;;;;5069557;28;20040;-79
2023/07/19 05:12:31;;;;;;;12.55;5.88;;;16.50;99.90;;;;;;5045810;28;20033;-78
2023/07/19 05:14:57;;;;;;;11.30;6.30;;;16.50;99.90;;;;;;5071353;28;20048;-79
2023/07/19 05:17:22;;;;;;;10.20;6.18;;;16.50;99.90;;;;;;5052668;28;20489;-79
2023/07/19 05:19:48;;;;;;;9.57;6.57;;;16.50;99.90;;;;;;5070725;28;20036;-79
2023/07/19 05:22:14;;;;;;;10.73;5.85;;;16.50;99.90;;;;;;5070909;28;20036;-79
2023/07/19 05:24:40;;;;;;;10.68;5.63;;;16.60;99.90;;;;;;5073520;28;20040;-78
2023/07/19 05:27:05;;;;;;;11.23;6.88;;;16.60;99.90;;;;;;5052996;28;20473;-79
2023/07/19 05:29:32;;;;;;;10.50;5.78;;;16.60;99.90;;;;;;5039047;28;20241;-79
2023/07/19 05:31:57;;;;;;;12.98;6.55;;;16.70;99.90;;;;;;5061187;28;20040;-79
2023/07/19 05:34:23;;;;;;;11.98;6.68;;;16.70;99.90;;;;;;5074212;28;20043;-79
2023/07/19 05:36:49;;;;;;;10.75;6.95;;;16.70;99.90;;;;;;5067788;28;20032;-79
2023/07/19 05:39:14;;;;;;;11.90;7.18;;;16.70;99.90;;;;;;5064436;28;20148;-79
2023/07/19 05:41:40;;;;;;;13.07;7.68;;;16.70;99.90;;;;;;5074006;28;20523;-79
2023/07/19 05:44:06;;;;;;;10.70;6.53;;;16.70;99.90;;;;;;5056743;28;20043;-79
2023/07/19 05:46:34;;;;;;;12.57;7.30;;;16.70;99.90;;;;;;5062530;28;20033;-79
2023/07/19 05:48:59;;;;;;;11.68;7.38;;;16.70;99.90;;;;;;5055098;28;20064;-79
2023/07/19 05:51:25;;;;;;;11.98;6.53;;;16.70;99.90;;;;;;5067067;28;20437;-78
2023/07/19 05:53:50;;;;;;;12.68;6.60;;;16.70;99.90;;;;;;5042981;28;20032;-76
2023/07/19 05:56:16;;;;;;;11.00;6.88;;;16.70;99.90;;;;;;5058447;28;20047;-77
2023/07/19 05:58:42;;;;;;;12.13;7.28;;;16.80;99.90;;;;;;5065917;28;20043;-77
2023/07/19 06:01:09;;;;;;;12.68;6.85;;;16.70;99.90;;;;;;5058302;28;20098;-77
2023/07/19 06:03:36;;;;;;;12.35;6.72;;;16.70;99.90;;;;;;5073285;28;20127;-77
2023/07/19 06:06:05;;;;;;;14.38;7.18;;;16.70;99.90;;;;;;5056781;28;20032;-78
2023/07/19 06:08:32;;;;;;;12.40;6.35;;;16.70;99.90;;;;;;5057560;28;20395;-77
2023/07/19 06:10:58;;;;;;;10.23;7.15;;;16.80;99.90;;;;;;5058336;28;20071;-77
2023/07/19 06:13:24;;;;;;;10.15;6.72;;;16.80;99.90;;;;;;5074717;28;20052;-77
2023/07/19 06:15:49;;;;;;;13.25;6.95;;;16.70;99.90;;;;;;5074648;28;20123;-78
2023/07/19 06:18:15;;;;;;;10.23;6.45;;;16.80;99.90;;;;;;5076078;28;20477;-77
2023/07/19 06:20:41;;;;;;;12.90;7.47;;;16.80;99.90;;;;;;5076533;28;20101;-77
2023/07/19 06:23:06;;;;;;;12.45;6.82;;;16.80;99.90;;;;;;5074679;28;20123;-77
2023/07/19 06:25:32;;;;;;;11.35;7.20;;;16.80;99.90;;;;;;5057814;28;20044;-77
2023/07/19 06:27:57;;;;;;;11.40;6.07;;;16.80;99.90;;;;;;5075577;28;20461;-77
2023/07/19 06:30:23;;;;;;;11.00;6.57;;;16.80;99.90;;;;;;5074363;28;20044;-77
2023/07/19 06:32:48;;;;;;;11.65;6.53;;;16.80;99.90;;;;;;5057806;28;20400;-77
2023/07/19 06:35:14;;;;;;;11.32;6.43;;;16.80;99.90;;;;;;5075725;28;20151;-77
2023/07/19 06:37:40;;;;;;;12.65;6.63;;;16.80;99.90;;;;;;5071982;28;20047;-77
2023/07/19 06:40:06;;;;;;;10.23;6.53;;;16.80;99.90;;;;;;5094799;28;20399;-77
2023/07/19 06:42:32;;;;;;;11.60;6.68;;;16.80;99.90;;;;;;5094371;28;20043;-77
2023/07/19 06:44:58;;;;;;;11.35;6.32;;;16.90;99.90;;;;;;5095651;28;20043;-77
2023/07/19 06:47:26;;;;;;;10.45;6.60;;;16.80;99.90;;;;;;5074093;28;20037;-77
2023/07/19 06:49:51;;;;;;;11.10;6.07;;;16.90;99.90;;;;;;5057627;28;20388;-77
2023/07/19 06:52:17;;;;;;;10.25;6.53;;;16.90;99.90;;;;;;5075310;28;20033;-77
2023/07/19 06:54:42;;;;;;;10.13;5.63;;;16.90;99.90;;;;;;5074773;28;20116;-77
2023/07/19 06:57:09;;;;;;;13.70;6.20;;;16.90;99.90;;;;;;5075157;28;20082;-77
2023/07/19 06:59:35;;;;;;;11.25;6.32;;;16.90;99.90;;;;;;5057327;28;20036;-78
2023/07/19 07:02:00;;;;;;;9.40;5.90;;;16.90;99.90;;;;;;5057566;28;20043;-77
2023/07/19 07:04:26;;;;;;;9.25;5.43;;;17.00;99.90;;;;;;5075315;28;20040;-78
2023/07/19 07:06:52;;;;;;;9.65;5.65;;;16.90;99.90;;;;;;5073936;28;20090;-77
2023/07/19 07:09:17;;;;;;;8.38;5.57;;;16.90;99.90;;;;;;5057120;28;20036;-77
2023/07/19 07:11:43;;;;;;;10.82;5.70;;;17.00;99.90;;;;;;5072674;28;20036;-77
2023/07/19 07:14:10;;;;;;;10.68;5.80;;;17.00;99.90;;;;;;5077210;28;20035;-77
2023/07/19 07:16:35;;;;;;;11.27;6.00;;;17.00;99.90;;;;;;5070052;28;20040;-79
2023/07/19 07:19:01;;;;;;;11.55;5.72;;;17.00;99.90;;;;;;5056046;28;20085;-78
2023/07/19 07:21:26;;;;;;;10.23;5.82;;;17.00;99.90;;;;;;5066943;28;20041;-77
2023/07/19 07:23:52;;;;;;;8.80;5.05;;;17.00;99.90;;;;;;5088928;28;20119;-77
2023/07/19 07:26:18;;;;;;;9.60;5.55;;;17.00;99.90;;;;;;5053218;28;20028;-77
2023/07/19 07:28:44;;;;;;;10.88;4.80;;;17.10;99.90;;;;;;5058653;28;20453;-77
2023/07/19 07:31:11;;;;;;;11.95;5.47;;;17.10;99.90;;;;;;5060120;28;20081;-77
2023/07/19 07:33:37;;;;;;;13.73;6.03;;;17.10;99.90;;;;;;5052900;28;20032;-77
2023/07/19 07:36:03;;;;;;;11.13;5.82;;;17.20;99.90;;;;;;5048734;28;20515;-78
2023/07/19 07:38:29;;;;;;;9.60;5.00;;;17.20;99.90;;;;;;5055683;28;20072;-77
2023/07/19 07:41:01;;;;;;;8.93;5.47;;;17.10;99.90;;;;;;5069208;28;20073;-77
2023/07/19 07:43:29;;;;;;;8.90;5.28;;;17.30;99.90;;;;;;5063754;28;20040;-78
2023/07/19 07:45:55;;;;;;;11.45;5.65;;;17.30;99.90;;;;;;5063735;28;20049;-77
2023/07/19 07:48:22;;;;;;;9.15;5.10;;;17.30;99.90;;;;;;5066909;28;20036;-77
2023/07/19 07:50:52;;;;;;;10.50;4.50;;;17.40;99.90;;;;;;5045280;28;20051;-77
2023/07/19 07:53:21;;;;;;;9.75;4.80;;;17.50;99.90;;;;;;5037729;28;20447;-77
2023/07/19 07:55:50;;;;;;;9.07;4.20;;;17.50;99.90;;;;;;5062234;28;20485;-77
2023/07/19 07:58:16;;;;;;;10.40;5.07;;;17.60;99.90;;;;;;5055481;28;20076;-77
2023/07/19 08:00:43;;;;;;;7.57;3.75;;;17.60;99.90;;;;;;5068646;28;20040;-77
2023/07/19 08:03:09;;;;;;;7.53;3.85;;;17.60;99.90;;;;;;5055505;28;20040;-77
2023/07/19 08:05:36;;;;;;;11.07;3.90;;;17.60;99.90;;;;;;5066071;28;20539;-77
2023/07/19 08:08:04;;;;;;;8.40;3.67;;;17.70;99.90;;;;;;5063880;28;20492;-77
2023/07/19 08:10:30;;;;;;;10.38;3.35;;;17.70;99.90;;;;;;5052224;28;20119;-77
2023/07/19 08:12:55;;;;;;;8.63;3.40;;;17.70;99.90;;;;;;5067444;28;20127;-78
2023/07/19 08:15:23;;;;;;;6.72;3.40;;;17.80;99.90;;;;;;5074844;28;20120;-77
2023/07/19 08:17:49;;;;;;;6.53;2.78;;;17.80;99.90;;;;;;5068057;28;20048;-78
2023/07/19 08:20:15;;;;;;;7.05;3.00;;;17.90;99.90;;;;;;5061696;28;20412;-78
2023/07/19 08:22:41;;;;;;;7.97;2.65;;;18.00;99.90;;;;;;5071191;28;20037;-78
2023/07/19 08:25:07;;;;;;;5.57;2.45;;;18.00;99.90;;;;;;5049975;28;20041;-78
2023/07/19 08:27:33;;;;;;;6.20;2.55;;;18.00;99.90;;;;;;5069818;28;20500;-77
2023/07/19 08:30:00;;;;;;;5.82;2.28;;;18.00;99.90;;;;;;5058529;28;20063;-78
2023/07/19 08:32:26;;;;;;;6.13;2.42;;;18.00;99.90;;;;;;5069879;28;20045;-78
2023/07/19 08:34:51;;;;;;;6.30;2.13;;;18.00;99.90;;;;;;5042521;28;20370;-78
2023/07/19 08:37:18;;;;;;;5.95;2.13;;;18.00;99.90;;;;;;5039293;28;20037;-78
2023/07/19 08:39:44;;;;;;;4.97;2.30;;;18.10;99.90;;;;;;5065030;28;20037;-77
2023/07/19 08:42:09;;;;;;;7.25;2.22;;;18.20;99.90;;;;;;5041117;28;20085;-78
2023/07/19 08:44:36;;;;;;;6.80;2.22;;;18.20;99.90;;;;;;5049904;28;20409;-78
2023/07/19 08:47:04;;;;;;;6.55;2.25;;;18.20;99.90;;;;;;5068983;28;20457;-78
2023/07/19 08:49:32;;;;;;;4.38;2.00;;;18.20;99.90;;;;;;5070668;28;20032;-78
2023/07/19 08:52:01;;;;;;;6.32;1.83;;;18.20;99.90;;;;;;5064254;28;20473;-78
2023/07/19 08:54:27;;;;;;;6.88;1.80;;;18.10;99.90;;;;;;5086043;28;20032;-78
2023/07/19 08:56:52;;;;;;;4.55;1.67;;;18.10;99.90;;;;;;5047163;28;20059;-78
2023/07/19 08:59:18;;;;;;;6.13;2.05;;;18.00;99.90;;;;;;5066624;28;20450;-78
2023/07/19 09:01:43;;;;;;;4.40;1.70;;;18.00;99.90;;;;;;5050232;28;20110;-79
2023/07/19 09:04:09;;;;;;;4.70;1.92;;;18.00;99.90;;;;;;5076907;28;20049;-78
2023/07/19 09:06:35;;;;;;;5.13;2.00;;;18.00;99.90;;;;;;5053772;28;20473;-78
2023/07/19 09:09:01;;;;;;;4.95;1.67;;;17.90;99.90;;;;;;5056161;28;20489;-79
2023/07/19 09:11:26;;;;;;;7.57;1.80;;;18.00;99.90;;;;;;5053784;28;20044;-79
2023/07/19 09:13:54;;;;;;;4.70;2.00;;;18.00;99.90;;;;;;5050071;28;20025;-79
2023/07/19 09:16:32;;;;;;;4.28;1.58;;;18.10;99.90;;;;;;5036671;28;20047;-79
2023/07/19 09:18:59;;;;;;;3.97;1.50;;;18.20;99.90;;;;;;5049641;28;20035;-79
2023/07/19 09:21:40;;;;;;;5.07;1.70;;;18.20;99.90;;;;;;5056655;28;20056;-79
2023/07/19 09:24:07;;;;;;;4.50;1.70;;;18.30;99.90;;;;;;5066273;28;20040;-79
2023/07/19 09:26:47;;;;;;;7.60;1.58;;;18.40;99.90;;;;;;5034024;28;20400;-79
2023/07/19 09:29:13;;;;;;;6.22;1.65;;;18.50;99.90;;;;;;5051645;28;20060;-79
2023/07/19 09:32:08;;;;;;;4.65;1.40;;;18.70;99.90;;;;;;5034872;28;20041;-80
2023/07/19 09:34:38;;;;;;;4.38;1.50;;;19.00;99.90;;;;;;5043185;28;20540;-79
2023/07/19 09:37:04;;;;;;;4.97;1.48;;;19.10;99.90;;;;;;5053580;28;20041;-79
2023/07/19 09:39:31;;;;;;;7.18;1.50;;;19.40;99.90;;;;;;5075899;28;20607;-80
2023/07/19 09:41:57;;;;;;;5.32;1.48;;;19.50;99.90;;;;;;5066799;28;20048;-79
2023/07/19 09:44:23;;;;;;;4.95;1.55;;;19.60;99.90;;;;;;5055095;28;20040;-79
2023/07/19 09:46:49;;;;;;;6.25;1.60;;;19.80;99.90;;;;;;5053664;28;20041;-80
2023/07/19 09:49:15;;;;;;;5.25;1.55;;;19.90;99.90;;;;;;5053745;28;20040;-79
2023/07/19 09:51:42;;;;;;;6.07;1.70;;;19.80;99.90;;;;;;5034776;28;20471;-80
2023/07/19 09:54:10;;;;;;;4.93;2.00;;;19.80;99.90;;;;;;5068058;28;20048;-80
2023/07/19 09:56:37;;;;;;;6.20;1.65;;;19.70;99.90;;;;;;5061400;28;20127;-80
2023/07/19 09:59:06;;;;;;;5.25;1.90;;;19.70;99.90;;;;;;5062605;28;20041;-80
2023/07/19 10:01:33;;;;;;;4.25;1.65;;;19.50;99.90;;;;;;5054195;28;20528;-80
2023/07/19 10:03:59;;;;;;;6.28;1.80;;;19.60;99.90;;;;;;5052580;28;20496;-80
2023/07/19 10:06:31;;;;;;;5.10;1.73;;;19.60;99.90;;;;;;5062635;28;20040;-80
2023/07/19 10:09:29;;;;;;;7.22;2.25;;;19.60;99.90;;;;;;5054567;28;20079;-80
2023/07/19 10:12:01;;;;;;;5.22;1.80;;;19.50;99.90;;;;;;5073374;28;20033;-80
2023/07/19 10:14:28;;;;;;;4.93;1.95;;;19.50;99.90;;;;;;5040945;28;20120;-80
2023/07/19 10:17:01;;;;;;;5.03;1.80;;;19.40;99.90;;;;;;5059034;28;20035;-79
2023/07/19 10:19:27;;;;;;;5.22;1.80;;;19.20;99.90;;;;;;5074726;28;20048;-79
2023/07/19 10:22:05;;;;;;;4.60;1.63;;;19.10;99.90;;;;;;5056279;28;20037;-80
2023/07/19 10:24:32;;;;;;;3.22;1.63;;;19.10;99.90;;;;;;5062268;28;20111;-80
2023/07/19 10:27:08;;;;;;;5.85;1.50;;;19.00;99.90;;;;;;5062742;28;20059;-79
2023/07/19 10:29:42;;;;;;;4.97;1.63;;;18.90;99.90;;;;;;5067620;28;20401;-79
2023/07/19 10:32:08;;;;;;;3.90;1.30;;;18.90;99.90;;;;;;5055258;28;20481;-79
2023/07/19 10:34:34;;;;;;;3.50;1.20;;;18.80;99.90;;;;;;5049346;28;20028;-79
2023/07/19 10:37:04;;;;;;;4.60;1.40;;;18.70;99.90;;;;;;5067044;28;20035;-80
2023/07/19 10:39:31;;;;;;;3.42;1.42;;;18.70;99.90;;;;;;5062731;28;20097;-79
2023/07/19 10:41:58;;;;;;;4.13;1.55;;;18.80;99.90;;;;;;5075585;28;20115;-79
2023/07/19 10:44:26;;;;;;;5.68;1.67;;;18.90;99.90;;;;;;5046174;28;20440;-79
2023/07/19 10:46:56;;;;;;;5.80;1.80;;;18.90;99.90;;;;;;5068649;28;20115;-79
2023/07/19 10:49:23;;;;;;;6.28;1.60;;;19.00;99.90;;;;;;5073135;28;20054;-79
2023/07/19 10:51:57;;;;;;;3.38;1.40;;;19.10;99.90;;;;;;5071146;28;20063;-80
2023/07/19 10:54:23;;;;;;;5.70;1.90;;;19.20;99.90;;;;;;5055688;28;20481;-79
2023/07/19 10:56:53;;;;;;;3.65;1.60;;;19.20;99.90;;;;;;5053980;28;20044;-79
2023/07/19 10:59:19;;;;;;;4.22;1.50;;;19.20;99.90;;;;;;5037367;28;20128;-79
2023/07/19 11:01:48;;;;;;;5.20;1.80;;;19.20;99.90;;;;;;5054064;28;20045;-79
2023/07/19 11:04:14;;;;;;;4.97;1.65;;;19.20;99.90;;;;;;5066557;28;20045;-79
2023/07/19 11:06:54;;;;;;;7.38;1.95;;;19.30;99.90;;;;;;5036786;28;20040;-79
2023/07/19 11:09:22;;;;;;;5.03;1.38;;;19.30;99.90;;;;;;5069369;28;20049;-79
2023/07/19 11:11:49;;;;;;;5.07;1.50;;;19.20;99.90;;;;;;5069221;28;20029;-80
2023/07/19 11:14:28;;;;;;;6.20;1.70;;;19.20;99.90;;;;;;5069930;28;20072;-82
2023/07/19 11:16:57;;;;;;;4.97;2.17;;;19.20;99.90;;;;;;5070693;28;20407;-80
2023/07/19 11:19:37;;;;;;;5.38;1.80;;;19.30;99.90;;;;;;5054816;28;20037;-80
2023/07/19 11:22:04;;;;;;;4.50;1.70;;;19.20;99.90;;;;;;5073623;28;20530;-79
2023/07/19 11:24:37;;;;;;;4.13;1.58;;;19.10;99.90;;;;;;5047258;28;20036;-80
2023/07/19 11:27:03;;;;;;;5.32;1.60;;;19.20;99.90;;;;;;5064520;28;20075;-80
2023/07/19 11:29:30;;;;;;;4.40;1.52;;;19.20;99.90;;;;;;5055394;28;20049;-80
2023/07/19 11:32:21;;;;;;;5.40;1.52;;;19.10;99.90;;;;;;5036697;28;20120;-80
2023/07/19 11:34:58;;;;;;;3.88;1.45;;;19.00;99.90;;;;;;5055666;28;20559;-79
2023/07/19 11:37:32;;;;;;;4.43;1.55;;;19.00;99.90;;;;;;5040649;28;20407;-80
2023/07/19 11:39:59;;;;;;;5.40;1.42;;;19.00;99.90;;;;;;5056393;28;20041;-79
2023/07/19 11:42:44;;;;;;;3.90;1.73;;;18.90;99.90;;;;;;5038215;28;20047;-79
2023/07/19 11:45:15;;;;;;;3.55;1.40;;;18.90;99.90;;;;;;5062629;28;20049;-79
2023/07/19 11:47:42;;;;;;;7.67;2.03;;;18.90;99.90;;;;;;5057526;28;20036;-80
2023/07/19 11:50:09;;;;;;;4.80;1.45;;;19.00;99.90;;;;;;5052927;28;20682;-80
2023/07/19 11:52:43;;;;;;;3.65;1.50;;;19.10;99.90;;;;;;5058739;28;20481;-79
2023/07/19 11:55:11;;;;;;;3.92;1.95;;;19.40;99.90;;;;;;5066089;28;20037;-80
2023/07/19 11:57:40;;;;;;;5.00;2.00;;;19.60;99.90;;;;;;5046815;28;20043;-79
2023/07/19 12:00:07;;;;;;;3.78;1.65;;;19.70;99.90;;;;;;5074572;28;20477;-80
2023/07/19 12:02:35;;;;;;;3.70;1.42;;;19.80;99.90;;;;;;5066578;28;20037;-79
2023/07/19 12:05:04;;;;;;;5.90;1.67;;;19.60;99.90;;;;;;5050847;28;20627;-80
2023/07/19 12:07:33;;;;;;;5.05;1.33;;;19.70;99.90;;;;;;5062995;28;20040;-79
2023/07/19 12:10:03;;;;;;;4.90;1.40;;;19.60;99.90;;;;;;5055933;28;20082;-80
2023/07/19 12:12:29;;;;;;;5.45;2.00;;;19.60;99.90;;;;;;5057710;28;20489;-78
2023/07/19 12:14:55;;;;;;;3.58;1.50;;;19.50;99.90;;;;;;5056312;28;20404;-80
2023/07/19 12:17:20;;;;;;;7.47;1.73;;;19.50;99.90;;;;;;5063796;28;20033;-79
2023/07/19 12:19:46;;;;;;;2.85;1.17;;;19.50;99.90;;;;;;5057741;28;20779;-79
2023/07/19 12:22:11;;;;;;;4.15;1.30;;;19.60;99.90;;;;;;5042840;28;20045;-79
2023/07/19 12:24:37;;;;;;;4.15;1.45;;;19.60;99.90;;;;;;5052568;28;20070;-80
2023/07/19 12:27:03;;;;;;;4.30;1.10;;;19.60;99.90;;;;;;5038169;28;20535;-79
2023/07/19 12:29:29;;;;;;;2.78;1.40;;;19.50;99.90;;;;;;5060028;28;20048;-80
2023/07/19 12:31:54;;;;;;;4.60;1.27;;;19.50;99.90;;;;;;5054036;28;20157;-79
2023/07/19 12:34:20;;;;;;;3.38;1.35;;;19.50;99.90;;;;;;5039366;28;20039;-80
2023/07/19 12:36:50;;;;;;;5.75;1.55;;;19.50;99.90;;;;;;5062793;28;20438;-79
2023/07/19 12:39:18;;;;;;;4.10;1.30;;;19.60;99.90;;;;;;5053917;28;20068;-79
2023/07/19 12:41:44;;;;;;;4.22;1.45;;;19.60;99.90;;;;;;5042921;28;20037;-80
2023/07/19 12:44:10;;;;;;;4.70;1.20;;;19.60;99.90;;;;;;5062695;28;20044;-79